createdAt,value
2023-02-07T00:00:39.444Z,30.85
2023-02-07T00:03:41.884Z,32.28
2023-02-07T00:06:44.112Z,34.40
2023-02-07T00:09:46.239Z,33.53
2023-02-07T00:12:49.970Z,31.27
2023-02-07T00:15:52.097Z,32.70
2023-02-07T00:18:55.050Z,36.55
2023-02-07T00:21:57.156Z,37.37
2023-02-07T00:24:59.303Z,39.30
2023-02-07T00:28:01.545Z,36.40
2023-02-07T00:31:08.973Z,40.15
2023-02-07T00:34:11.798Z,35.42
2023-02-07T00:37:14.001Z,39.95
2023-02-07T00:40:18.591Z,36.53
2023-02-07T00:43:29.373Z,35.87
2023-02-07T00:46:33.080Z,38.45
2023-02-07T00:49:35.319Z,39.05
2023-02-07T00:52:37.602Z,35.30
2023-02-07T00:55:39.934Z,38.63
2023-02-07T00:58:42.134Z,37.65
2023-02-07T01:01:44.388Z,39.20
2023-02-07T01:04:46.541Z,36.85
2023-02-07T01:07:48.715Z,38.08
2023-02-07T01:10:50.867Z,34.75
2023-02-07T01:13:53.154Z,32.60
2023-02-07T01:16:57.595Z,36.00
2023-02-07T01:20:00.013Z,31.92
2023-02-07T01:23:02.406Z,31.50
2023-02-07T01:26:05.714Z,33.53
2023-02-07T01:29:08.554Z,35.33
2023-02-07T01:32:10.801Z,32.78
2023-02-07T01:35:12.959Z,35.25
2023-02-07T01:38:15.923Z,31.85
2023-02-07T01:41:18.586Z,34.03
2023-02-07T01:44:23.764Z,33.83
2023-02-07T01:47:26.551Z,36.85
2023-02-07T01:50:29.320Z,33.25
2023-02-07T01:53:33.138Z,33.60
2023-02-07T01:56:36.169Z,33.15
2023-02-07T01:59:40.882Z,34.17
2023-02-07T02:02:43.593Z,33.40
2023-02-07T02:05:50.184Z,35.83
2023-02-07T02:08:58.035Z,35.47
2023-02-07T02:12:18.469Z,36.65
2023-02-07T02:15:48.599Z,37.17
2023-02-07T02:18:59.630Z,35.80
2023-02-07T02:22:32.734Z,29.48
2023-02-07T02:25:53.688Z,36.80
2023-02-07T02:29:53.495Z,31.83
2023-02-07T02:33:02.275Z,36.42
2023-02-07T02:36:23.257Z,35.00
2023-02-07T02:40:12.875Z,33.95
2023-02-07T02:43:25.204Z,33.03
2023-02-07T02:46:34.983Z,35.33
2023-02-07T02:49:37.871Z,35.13
2023-02-07T02:52:50.345Z,32.67
2023-02-07T02:56:29.825Z,34.30
2023-02-07T02:59:41.913Z,33.73
2023-02-07T03:02:57.729Z,35.20
2023-02-07T03:06:18.833Z,30.65
2023-02-07T03:09:27.006Z,33.38
2023-02-07T03:12:52.471Z,31.52
2023-02-07T03:16:23.643Z,29.75
2023-02-07T03:19:33.407Z,37.20
2023-02-07T03:22:36.054Z,29.53
2023-02-07T03:25:39.311Z,29.25
2023-02-07T03:28:43.931Z,31.27
2023-02-07T03:31:49.048Z,34.47
2023-02-07T03:34:54.427Z,34.33
2023-02-07T03:38:03.495Z,31.10
2023-02-07T03:41:12.008Z,32.60
2023-02-07T03:44:15.282Z,30.83
2023-02-07T03:47:18.819Z,37.85
2023-02-07T03:50:21.119Z,34.55
2023-02-07T03:53:23.307Z,36.23
2023-02-07T03:56:25.438Z,38.88
2023-02-07T03:59:27.943Z,35.10
2023-02-07T04:02:30.586Z,39.00
2023-02-07T04:05:32.718Z,34.80
2023-02-07T04:08:35.122Z,36.50
2023-02-07T04:11:37.252Z,38.47
2023-02-07T04:14:39.386Z,40.40
2023-02-07T04:17:41.729Z,36.92
2023-02-07T04:20:44.019Z,38.45
2023-02-07T04:23:46.164Z,41.33
2023-02-07T04:26:48.935Z,42.13
2023-02-07T04:29:51.262Z,41.92
2023-02-07T04:32:55.846Z,42.07
2023-02-07T04:35:59.935Z,41.25
2023-02-07T04:39:02.541Z,37.83
2023-02-07T04:42:04.909Z,40.03
2023-02-07T04:45:07.335Z,39.45
2023-02-07T04:48:09.491Z,39.38
2023-02-07T04:51:12.153Z,38.42
2023-02-07T04:54:14.330Z,42.30
2023-02-07T04:57:16.763Z,41.90
2023-02-07T05:00:19.528Z,42.50
2023-02-07T05:03:21.698Z,39.67
2023-02-07T05:06:23.815Z,40.53
2023-02-07T05:09:26.003Z,42.65
2023-02-07T05:12:28.213Z,40.63
2023-02-07T05:15:30.799Z,40.58
2023-02-07T05:18:32.982Z,43.10
2023-02-07T05:21:35.730Z,40.70
2023-02-07T05:24:38.794Z,42.63
2023-02-07T05:27:41.187Z,40.13
2023-02-07T05:30:43.413Z,38.65
2023-02-07T05:33:45.744Z,37.33
2023-02-07T05:36:47.895Z,41.08
2023-02-07T05:39:50.055Z,37.88
2023-02-07T05:42:52.442Z,44.25
2023-02-07T05:45:54.779Z,37.13
2023-02-07T05:48:56.957Z,37.63
2023-02-07T05:51:59.157Z,43.35
2023-02-07T05:55:01.427Z,44.17
2023-02-07T05:58:03.779Z,39.78
2023-02-07T06:01:05.948Z,41.85
2023-02-07T06:04:08.167Z,39.03
2023-02-07T06:07:10.334Z,43.25
2023-02-07T06:10:13.276Z,39.78
2023-02-07T06:13:15.596Z,45.42
2023-02-07T06:16:17.814Z,37.95
2023-02-07T06:19:20.084Z,43.20
2023-02-07T06:22:22.608Z,43.50
2023-02-07T06:25:27.748Z,41.40
2023-02-07T06:28:29.980Z,40.70
2023-02-07T06:31:32.234Z,43.25
2023-02-07T06:34:34.540Z,43.33
2023-02-07T06:37:37.119Z,43.55
2023-02-07T06:40:44.621Z,47.25
2023-02-07T06:43:49.574Z,46.53
2023-02-07T06:46:51.915Z,44.63
2023-02-07T06:49:54.657Z,48.15
2023-02-07T06:53:01.897Z,49.70
2023-02-07T06:56:04.372Z,49.80
2023-02-07T06:59:06.709Z,50.28
2023-02-07T07:02:11.124Z,49.10
2023-02-07T07:05:15.468Z,50.83
2023-02-07T07:08:19.110Z,48.65
2023-02-07T07:11:22.421Z,44.40
2023-02-07T07:14:24.630Z,48.28
2023-02-07T07:17:31.735Z,40.40
2023-02-07T07:20:34.118Z,38.83
2023-02-07T07:23:36.727Z,35.53
2023-02-07T07:26:49.431Z,40.23
2023-02-07T07:29:52.766Z,40.47
2023-02-07T07:32:55.614Z,36.55
2023-02-07T07:35:59.432Z,37.90
2023-02-07T07:39:01.700Z,37.03
2023-02-07T07:42:05.593Z,31.23
2023-02-07T07:45:31.106Z,40.72
2023-02-07T07:48:36.036Z,31.73
2023-02-07T07:51:38.312Z,32.90
2023-02-07T07:54:40.529Z,37.47
2023-02-07T07:57:42.733Z,29.57
2023-02-07T08:00:45.192Z,31.90
2023-02-07T08:03:54.911Z,30.42
2023-02-07T08:06:57.890Z,29.10
2023-02-07T08:10:00.315Z,30.85
2023-02-07T08:13:03.004Z,29.92
2023-02-07T08:16:10.967Z,28.40
2023-02-07T08:19:13.224Z,30.80
2023-02-07T08:22:15.848Z,28.65
2023-02-07T08:25:22.684Z,30.92
2023-02-07T08:28:26.273Z,26.57
2023-02-07T08:31:28.607Z,27.60
2023-02-07T08:34:37.131Z,29.45
2023-02-07T08:37:39.440Z,29.57
2023-02-07T08:40:42.043Z,31.05
2023-02-07T08:43:46.809Z,29.90
2023-02-07T08:46:49.212Z,25.63
2023-02-07T08:49:51.849Z,28.92
2023-02-07T08:52:58.074Z,27.27
2023-02-07T08:56:04.156Z,27.83
2023-02-07T08:59:09.262Z,29.17
2023-02-07T09:02:12.498Z,27.27
2023-02-07T09:05:25.363Z,23.63
2023-02-07T09:08:27.688Z,24.87
2023-02-07T09:11:33.288Z,25.95
2023-02-07T09:14:35.829Z,26.83
2023-02-07T09:17:58.281Z,26.90
2023-02-07T09:21:02.525Z,26.73
2023-02-07T09:24:04.870Z,25.02
2023-02-07T09:27:08.566Z,25.35
2023-02-07T09:30:12.175Z,21.30
2023-02-07T09:33:15.264Z,27.42
2023-02-07T09:36:21.586Z,25.50
2023-02-07T09:39:24.730Z,22.77
2023-02-07T09:42:33.935Z,21.50
2023-02-07T09:45:41.234Z,24.00
2023-02-07T09:48:51.432Z,22.27
2023-02-07T09:51:57.254Z,23.92
2023-02-07T09:55:05.542Z,23.15
2023-02-07T09:58:41.252Z,19.80
2023-02-07T10:01:51.685Z,20.83
2023-02-07T10:04:59.240Z,22.52
2023-02-07T10:08:01.434Z,22.80
2023-02-07T10:11:19.425Z,17.43
2023-02-07T10:14:53.870Z,17.85
2023-02-07T10:18:34.398Z,18.58
2023-02-07T10:21:58.118Z,19.17
2023-02-07T10:25:16.971Z,19.75
2023-02-07T10:28:51.656Z,17.00
2023-02-07T10:31:55.086Z,17.15
2023-02-07T10:35:04.653Z,18.90
2023-02-07T10:38:22.954Z,17.55
2023-02-07T10:41:40.197Z,17.17
2023-02-07T10:44:43.027Z,19.50
2023-02-07T10:47:45.951Z,19.85
2023-02-07T10:50:48.988Z,18.77
2023-02-07T10:54:07.588Z,17.65
2023-02-07T10:57:17.158Z,19.88
2023-02-07T11:08:14.734Z,16.87
2023-02-07T11:11:40.610Z,17.52
2023-02-07T11:15:01.378Z,15.15
2023-02-07T11:18:04.199Z,16.53
2023-02-07T11:21:08.477Z,15.30
2023-02-07T11:24:31.262Z,13.15
2023-02-07T11:27:38.631Z,15.52
2023-02-07T11:30:40.866Z,13.38
2023-02-07T11:33:43.340Z,14.70
2023-02-07T11:36:48.305Z,14.30
2023-02-07T11:39:54.285Z,15.53
2023-02-07T11:43:22.155Z,15.38
2023-02-07T11:46:31.677Z,15.80
2023-02-07T11:49:38.159Z,15.07
2023-02-07T11:52:44.304Z,15.98
2023-02-07T11:55:46.585Z,12.82
2023-02-07T11:58:53.768Z,14.45
2023-02-07T12:01:58.572Z,13.55
2023-02-07T12:05:28.241Z,14.88
2023-02-07T12:08:38.289Z,15.25
2023-02-07T12:11:41.224Z,16.17
2023-02-07T12:14:56.205Z,16.25
2023-02-07T12:18:03.418Z,13.68
2023-02-07T12:21:25.278Z,19.97
2023-02-07T12:24:42.644Z,15.30
2023-02-07T12:27:46.315Z,14.80
2023-02-07T12:30:54.167Z,18.73
2023-02-07T12:34:21.135Z,17.00
2023-02-07T12:37:31.015Z,16.23
2023-02-07T12:40:40.506Z,17.00
2023-02-07T12:43:51.213Z,15.27
2023-02-07T12:47:15.368Z,17.15
2023-02-07T12:50:29.770Z,15.02
2023-02-07T12:54:09.731Z,15.00
2023-02-07T12:57:39.629Z,17.17
2023-02-07T13:01:02.438Z,17.58
2023-02-07T13:04:38.697Z,14.05
2023-02-07T13:07:49.816Z,16.30
2023-02-07T13:11:01.028Z,16.83
2023-02-07T13:14:12.546Z,17.30
2023-02-07T13:17:38.747Z,18.03
2023-02-07T13:20:50.124Z,16.77
2023-02-07T13:24:00.589Z,18.40
2023-02-07T13:27:06.475Z,17.50
2023-02-07T13:30:17.048Z,15.70
2023-02-07T13:33:25.134Z,15.95
2023-02-07T13:36:43.895Z,18.33
2023-02-07T13:40:02.482Z,19.27
2023-02-07T13:43:13.750Z,17.25
2023-02-07T13:46:46.489Z,16.38
2023-02-07T13:50:24.043Z,19.07
2023-02-07T13:54:02.373Z,20.45
2023-02-07T13:57:23.048Z,16.45
2023-02-07T14:04:08.385Z,18.90
2023-02-07T14:07:21.239Z,19.58
2023-02-07T14:10:40.872Z,18.52
2023-02-07T14:13:44.466Z,19.92
2023-02-07T14:16:54.157Z,18.40
2023-02-07T14:20:01.050Z,18.85
2023-02-07T14:23:11.104Z,18.40
2023-02-07T14:26:38.220Z,20.88
2023-02-07T14:29:41.594Z,21.17
2023-02-07T14:32:45.319Z,19.00
2023-02-07T14:36:04.850Z,18.33
2023-02-07T14:39:27.932Z,17.40
2023-02-07T14:42:30.191Z,18.33
2023-02-07T14:45:35.779Z,21.92
2023-02-07T14:49:07.383Z,19.77
2023-02-07T14:52:15.858Z,17.25
2023-02-07T14:55:22.252Z,20.40
2023-02-07T14:58:38.360Z,22.83
2023-02-07T15:01:40.578Z,19.50
2023-02-07T15:04:43.738Z,22.27
2023-02-07T15:07:47.235Z,20.92
2023-02-07T15:11:04.871Z,23.00
2023-02-07T15:14:07.189Z,22.15
2023-02-07T15:17:10.890Z,21.90
2023-02-07T15:20:19.523Z,19.23
2023-02-07T15:23:23.220Z,24.08
2023-02-07T15:26:25.500Z,21.77
2023-02-07T15:29:39.052Z,20.58
2023-02-07T15:32:52.630Z,19.23
2023-02-07T15:35:54.861Z,21.20
2023-02-07T15:38:58.356Z,20.48
2023-02-07T15:42:00.605Z,18.15
2023-02-07T15:45:04.067Z,20.05
2023-02-07T15:48:15.670Z,22.42
2023-02-07T15:51:30.496Z,20.40
2023-02-07T15:54:37.417Z,18.77
2023-02-07T15:57:43.027Z,17.67
2023-02-07T16:00:45.240Z,19.10
2023-02-07T16:03:47.774Z,19.15
2023-02-07T16:07:12.242Z,16.90
2023-02-07T16:10:34.713Z,17.02
2023-02-07T16:13:44.841Z,19.70
2023-02-07T16:16:55.335Z,19.95
2023-02-07T16:19:57.483Z,20.98
2023-02-07T16:23:04.576Z,24.00
2023-02-07T16:26:06.846Z,22.25
2023-02-07T16:29:13.875Z,25.70
2023-02-07T16:32:16.981Z,25.55
2023-02-07T16:35:25.428Z,26.45
2023-02-07T16:38:27.589Z,29.60
2023-02-07T16:41:32.352Z,24.30
2023-02-07T16:44:35.984Z,28.33
2023-02-07T16:47:38.144Z,27.17
2023-02-07T16:50:40.633Z,20.67
2023-02-07T16:53:43.115Z,22.65
2023-02-07T16:56:47.193Z,30.65
2023-02-07T16:59:49.342Z,26.50
2023-02-07T17:02:52.755Z,27.13
2023-02-07T17:05:54.931Z,25.00
2023-02-07T17:08:57.081Z,27.13
2023-02-07T17:11:59.269Z,23.67
2023-02-07T17:15:02.393Z,24.75
2023-02-07T17:18:04.664Z,33.55
2023-02-07T17:21:08.940Z,29.15
2023-02-07T17:24:11.198Z,50.40
2023-02-07T17:27:14.716Z,93.65
2023-02-07T17:30:38.481Z,51.37
2023-02-07T17:33:41.021Z,38.30
2023-02-07T17:36:48.478Z,52.80
2023-02-07T17:39:52.603Z,55.93
2023-02-07T17:42:54.796Z,33.92
2023-02-07T17:45:57.123Z,35.50
2023-02-07T17:48:59.712Z,31.83
2023-02-07T17:52:02.749Z,30.80
2023-02-07T17:55:05.295Z,30.70
2023-02-07T17:58:07.584Z,30.55
2023-02-07T18:01:09.817Z,35.97
2023-02-07T18:04:12.113Z,26.85
2023-02-07T18:07:14.641Z,31.35
2023-02-07T18:10:28.394Z,27.37
2023-02-07T18:13:30.640Z,25.02
2023-02-07T18:16:32.865Z,34.33
2023-02-07T18:19:35.082Z,32.90
2023-02-07T18:22:37.560Z,31.20
2023-02-07T18:25:39.962Z,29.73
2023-02-07T18:28:43.431Z,33.33
2023-02-07T18:31:46.420Z,32.37
2023-02-07T18:34:49.135Z,30.27
2023-02-07T18:37:51.633Z,31.30
2023-02-07T18:40:53.948Z,28.27
2023-02-07T18:43:56.357Z,28.73
2023-02-07T18:46:58.633Z,30.35
2023-02-07T18:50:03.452Z,30.33
2023-02-07T18:53:05.755Z,32.70
2023-02-07T18:56:11.232Z,30.45
2023-02-07T18:59:17.250Z,34.20
2023-02-07T19:02:19.661Z,30.63
2023-02-07T19:05:22.091Z,29.60
2023-02-07T19:08:24.302Z,35.03
2023-02-07T19:11:26.761Z,36.20
2023-02-07T19:14:35.476Z,36.90
2023-02-07T19:17:37.844Z,35.58
2023-02-07T19:20:40.397Z,36.63
2023-02-07T19:23:42.939Z,32.22
2023-02-07T19:26:46.869Z,38.22
2023-02-07T19:29:49.205Z,34.65
2023-02-07T19:32:52.037Z,29.20
2023-02-07T19:35:54.685Z,32.72
2023-02-07T19:38:57.230Z,35.22
2023-02-07T19:45:15.922Z,34.00
2023-02-07T19:48:18.124Z,35.33
2023-02-07T19:51:27.335Z,34.30
2023-02-07T19:54:29.772Z,35.13
2023-02-07T19:57:33.336Z,38.42
2023-02-07T20:00:35.735Z,33.42
2023-02-07T20:03:45.328Z,35.97
2023-02-07T20:06:47.510Z,35.55
2023-02-07T20:09:50.114Z,37.35
2023-02-07T20:12:52.355Z,39.87
2023-02-07T20:15:54.551Z,38.95
2023-02-07T20:18:56.982Z,38.03
2023-02-07T20:21:59.223Z,40.13
2023-02-07T20:25:01.669Z,41.83
2023-02-07T20:28:05.175Z,39.88
2023-02-07T20:31:11.789Z,41.63
2023-02-07T20:34:14.905Z,41.00
2023-02-07T20:37:17.186Z,43.90
2023-02-07T20:40:19.411Z,43.42
2023-02-07T20:43:21.550Z,45.73
2023-02-07T20:46:24.218Z,46.38
2023-02-07T20:49:28.907Z,42.95
2023-02-07T20:52:31.251Z,40.28
2023-02-07T20:55:33.491Z,44.60
2023-02-07T20:58:35.913Z,43.90
2023-02-07T21:01:39.474Z,44.75
2023-02-07T21:04:42.940Z,41.57
2023-02-07T21:07:45.154Z,42.05
2023-02-07T21:10:47.323Z,42.55
2023-02-07T21:13:53.999Z,45.90
2023-02-07T21:17:02.371Z,46.30
2023-02-07T21:20:04.963Z,41.65
2023-02-07T21:23:07.789Z,44.28
2023-02-07T21:26:11.811Z,45.30
2023-02-07T21:29:17.185Z,51.25
2023-02-07T21:32:19.700Z,44.33
2023-02-07T21:35:21.834Z,45.80
2023-02-07T21:38:24.034Z,45.88
2023-02-07T21:41:28.930Z,43.70
2023-02-07T21:44:31.122Z,46.10
2023-02-07T21:47:33.295Z,43.05
2023-02-07T21:50:35.448Z,41.97
2023-02-07T21:53:38.163Z,43.80
2023-02-07T21:56:45.387Z,38.85
2023-02-07T21:59:47.780Z,48.00
2023-02-07T22:02:50.472Z,43.08
2023-02-07T22:05:52.937Z,43.67
2023-02-07T22:08:57.404Z,45.13
2023-02-07T22:11:59.729Z,42.65
2023-02-07T22:15:01.983Z,41.33
2023-02-07T22:18:05.108Z,44.78
2023-02-07T22:21:10.660Z,47.17
2023-02-07T22:24:14.602Z,40.50
2023-02-07T22:27:16.849Z,43.95
2023-02-07T22:30:19.869Z,41.33
2023-02-07T22:33:33.783Z,42.75
2023-02-07T22:36:39.244Z,43.27
2023-02-07T22:39:52.439Z,42.90
2023-02-07T22:46:32.539Z,41.17
2023-02-07T22:53:15.948Z,42.03
2023-02-07T22:56:18.678Z,43.95
2023-02-07T22:59:20.921Z,45.58
2023-02-07T23:02:23.078Z,43.60
2023-02-07T23:05:25.253Z,43.88
2023-02-07T23:08:27.424Z,40.67
2023-02-07T23:11:31.852Z,42.60
2023-02-07T23:14:34.016Z,43.50
2023-02-07T23:17:36.164Z,40.13
2023-02-07T23:20:38.560Z,39.97
2023-02-07T23:23:41.032Z,41.85
2023-02-07T23:26:43.192Z,37.30
2023-02-07T23:29:45.308Z,38.40
2023-02-07T23:32:47.455Z,41.00
2023-02-07T23:35:49.571Z,38.15
2023-02-07T23:38:51.804Z,37.23
2023-02-07T23:45:10.083Z,37.40
2023-02-07T23:48:12.318Z,35.40
2023-02-07T23:51:15.184Z,39.45
2023-02-07T23:54:17.344Z,37.25
2023-02-07T23:57:19.479Z,34.30
